sensor_id;sensor_type;location;lat;lon;timestamp;P1;durP1;ratioP1;P2;durP2;ratioP2
1206;SDS011;593;53.184;8.216;2022-12-18T00:00:56;43.17;;;17.77;;
1206;SDS011;593;53.184;8.216;2022-12-18T00:03:21;39.17;;;17.73;;
1206;SDS011;593;53.184;8.216;2022-12-18T00:05:47;35.40;;;16.97;;
1206;SDS011;593;53.184;8.216;2022-12-18T00:08:16;39.97;;;18.45;;
1206;SDS011;593;53.184;8.216;2022-12-18T00:10:42;44.53;;;19.88;;
1206;SDS011;593;53.184;8.216;2022-12-18T00:13:08;35.70;;;17.77;;
1206;SDS011;593;53.184;8.216;2022-12-18T00:15:34;53.07;;;20.17;;
1206;SDS011;593;53.184;8.216;2022-12-18T00:18:00;47.03;;;20.77;;
1206;SDS011;593;53.184;8.216;2022-12-18T00:20:25;40.30;;;21.03;;
1206;SDS011;593;53.184;8.216;2022-12-18T00:22:54;45.00;;;20.10;;
1206;SDS011;593;53.184;8.216;2022-12-18T00:25:19;50.58;;;19.60;;
1206;SDS011;593;53.184;8.216;2022-12-18T00:27:45;49.83;;;19.40;;
1206;SDS011;593;53.184;8.216;2022-12-18T00:30:10;44.37;;;18.23;;
1206;SDS011;593;53.184;8.216;2022-12-18T00:32:36;44.60;;;19.27;;
1206;SDS011;593;53.184;8.216;2022-12-18T00:35:02;46.00;;;20.00;;
1206;SDS011;593;53.184;8.216;2022-12-18T00:37:28;39.23;;;18.43;;
1206;SDS011;593;53.184;8.216;2022-12-18T00:39:53;46.97;;;22.53;;
1206;SDS011;593;53.184;8.216;2022-12-18T00:42:19;42.07;;;20.00;;
1206;SDS011;593;53.184;8.216;2022-12-18T00:45:26;41.85;;;17.90;;
1206;SDS011;593;53.184;8.216;2022-12-18T00:47:55;51.33;;;19.92;;
1206;SDS011;593;53.184;8.216;2022-12-18T00:50:21;39.08;;;18.58;;
1206;SDS011;593;53.184;8.216;2022-12-18T00:52:48;50.38;;;20.52;;
1206;SDS011;593;53.184;8.216;2022-12-18T00:55:13;50.43;;;19.07;;
1206;SDS011;593;53.184;8.216;2022-12-18T00:57:40;51.83;;;19.58;;
1206;SDS011;593;53.184;8.216;2022-12-18T01:00:07;53.47;;;23.90;;
1206;SDS011;593;53.184;8.216;2022-12-18T01:02:34;48.28;;;19.73;;
1206;SDS011;593;53.184;8.216;2022-12-18T01:04:59;47.63;;;19.97;;
1206;SDS011;593;53.184;8.216;2022-12-18T01:07:25;33.23;;;16.60;;
1206;SDS011;593;53.184;8.216;2022-12-18T01:09:50;46.73;;;20.47;;
1206;SDS011;593;53.184;8.216;2022-12-18T01:12:16;51.87;;;20.00;;
1206;SDS011;593;53.184;8.216;2022-12-18T01:14:41;51.60;;;20.40;;
1206;SDS011;593;53.184;8.216;2022-12-18T01:17:06;40.10;;;17.37;;
1206;SDS011;593;53.184;8.216;2022-12-18T01:19:32;38.73;;;16.87;;
1206;SDS011;593;53.184;8.216;2022-12-18T01:21:58;35.37;;;16.47;;
1206;SDS011;593;53.184;8.216;2022-12-18T01:24:24;38.33;;;18.27;;
1206;SDS011;593;53.184;8.216;2022-12-18T01:26:49;45.50;;;17.57;;
1206;SDS011;593;53.184;8.216;2022-12-18T01:29:15;47.80;;;17.63;;
1206;SDS011;593;53.184;8.216;2022-12-18T01:31:40;30.30;;;15.57;;
1206;SDS011;593;53.184;8.216;2022-12-18T01:34:06;40.20;;;17.50;;
1206;SDS011;593;53.184;8.216;2022-12-18T01:36:32;37.10;;;15.10;;
1206;SDS011;593;53.184;8.216;2022-12-18T01:39:00;31.08;;;14.02;;
1206;SDS011;593;53.184;8.216;2022-12-18T01:41:28;40.47;;;15.98;;
1206;SDS011;593;53.184;8.216;2022-12-18T01:47:18;33.53;;;13.85;;
1206;SDS011;593;53.184;8.216;2022-12-18T01:49:47;28.27;;;14.52;;
1206;SDS011;593;53.184;8.216;2022-12-18T01:52:14;29.50;;;13.17;;
1206;SDS011;593;53.184;8.216;2022-12-18T01:54:41;28.52;;;13.43;;
1206;SDS011;593;53.184;8.216;2022-12-18T01:57:07;26.77;;;13.40;;
1206;SDS011;593;53.184;8.216;2022-12-18T02:02:12;22.33;;;12.45;;
1206;SDS011;593;53.184;8.216;2022-12-18T02:04:37;33.57;;;14.27;;
1206;SDS011;593;53.184;8.216;2022-12-18T02:07:16;31.20;;;14.80;;
1206;SDS011;593;53.184;8.216;2022-12-18T02:15:09;29.00;;;14.17;;
1206;SDS011;593;53.184;8.216;2022-12-18T02:17:47;30.67;;;13.30;;
1206;SDS011;593;53.184;8.216;2022-12-18T02:20:22;32.70;;;14.68;;
1206;SDS011;593;53.184;8.216;2022-12-18T02:28:18;31.63;;;15.05;;
1206;SDS011;593;53.184;8.216;2022-12-18T02:30:47;29.10;;;13.88;;
1206;SDS011;593;53.184;8.216;2022-12-18T02:33:15;23.20;;;13.90;;
1206;SDS011;593;53.184;8.216;2022-12-18T02:35:44;21.23;;;12.77;;
1206;SDS011;593;53.184;8.216;2022-12-18T02:38:11;20.52;;;11.32;;
1206;SDS011;593;53.184;8.216;2022-12-18T02:40:39;25.67;;;13.98;;
1206;SDS011;593;53.184;8.216;2022-12-18T02:43:08;19.98;;;12.50;;
1206;SDS011;593;53.184;8.216;2022-12-18T02:45:52;24.02;;;12.23;;
1206;SDS011;593;53.184;8.216;2022-12-18T02:48:20;25.27;;;11.35;;
1206;SDS011;593;53.184;8.216;2022-12-18T02:50:52;25.30;;;14.38;;
1206;SDS011;593;53.184;8.216;2022-12-18T02:53:43;25.58;;;11.23;;
1206;SDS011;593;53.184;8.216;2022-12-18T02:56:13;22.13;;;11.23;;
1206;SDS011;593;53.184;8.216;2022-12-18T02:58:47;24.40;;;11.75;;
1206;SDS011;593;53.184;8.216;2022-12-18T03:04:04;29.38;;;14.00;;
1206;SDS011;593;53.184;8.216;2022-12-18T03:06:41;19.70;;;10.65;;
1206;SDS011;593;53.184;8.216;2022-12-18T03:09:17;22.17;;;10.95;;
1206;SDS011;593;53.184;8.216;2022-12-18T03:11:46;26.20;;;11.93;;
1206;SDS011;593;53.184;8.216;2022-12-18T03:14:36;20.45;;;11.20;;
1206;SDS011;593;53.184;8.216;2022-12-18T03:17:04;22.83;;;12.25;;
1206;SDS011;593;53.184;8.216;2022-12-18T03:19:36;18.98;;;12.00;;
1206;SDS011;593;53.184;8.216;2022-12-18T03:22:04;22.48;;;11.88;;
1206;SDS011;593;53.184;8.216;2022-12-18T03:24:32;23.50;;;12.40;;
1206;SDS011;593;53.184;8.216;2022-12-18T03:27:00;18.83;;;11.98;;
1206;SDS011;593;53.184;8.216;2022-12-18T03:29:29;13.60;;;10.23;;
1206;SDS011;593;53.184;8.216;2022-12-18T03:32:01;26.83;;;13.45;;
1206;SDS011;593;53.184;8.216;2022-12-18T03:34:32;21.38;;;11.13;;
1206;SDS011;593;53.184;8.216;2022-12-18T03:37:00;24.75;;;11.57;;
1206;SDS011;593;53.184;8.216;2022-12-18T03:39:26;25.63;;;12.37;;
1206;SDS011;593;53.184;8.216;2022-12-18T03:52:49;16.70;;;9.60;;
1206;SDS011;593;53.184;8.216;2022-12-18T03:55:22;15.27;;;9.55;;
1206;SDS011;593;53.184;8.216;2022-12-18T03:57:50;16.08;;;10.23;;
1206;SDS011;593;53.184;8.216;2022-12-18T04:00:18;28.30;;;11.20;;
1206;SDS011;593;53.184;8.216;2022-12-18T04:02:46;17.48;;;10.35;;
1206;SDS011;593;53.184;8.216;2022-12-18T04:05:15;18.40;;;11.93;;
1206;SDS011;593;53.184;8.216;2022-12-18T04:07:42;17.27;;;11.00;;
1206;SDS011;593;53.184;8.216;2022-12-18T04:10:09;17.50;;;10.32;;
1206;SDS011;593;53.184;8.216;2022-12-18T04:12:36;18.70;;;10.82;;
1206;SDS011;593;53.184;8.216;2022-12-18T04:15:02;17.87;;;10.90;;
1206;SDS011;593;53.184;8.216;2022-12-18T04:17:27;24.43;;;11.63;;
1206;SDS011;593;53.184;8.216;2022-12-18T04:19:53;14.97;;;9.43;;
1206;SDS011;593;53.184;8.216;2022-12-18T04:22:18;20.00;;;11.90;;
1206;SDS011;593;53.184;8.216;2022-12-18T04:24:43;17.03;;;9.67;;
1206;SDS011;593;53.184;8.216;2022-12-18T04:27:08;16.53;;;10.67;;
1206;SDS011;593;53.184;8.216;2022-12-18T04:29:34;17.83;;;11.00;;
1206;SDS011;593;53.184;8.216;2022-12-18T04:31:59;14.17;;;9.47;;
1206;SDS011;593;53.184;8.216;2022-12-18T04:34:24;16.67;;;10.60;;
1206;SDS011;593;53.184;8.216;2022-12-18T04:36:50;22.03;;;11.30;;
1206;SDS011;593;53.184;8.216;2022-12-18T04:39:15;27.60;;;10.63;;
1206;SDS011;593;53.184;8.216;2022-12-18T04:41:40;21.37;;;10.67;;
1206;SDS011;593;53.184;8.216;2022-12-18T04:44:06;17.40;;;11.60;;
1206;SDS011;593;53.184;8.216;2022-12-18T04:46:31;21.70;;;10.87;;
1206;SDS011;593;53.184;8.216;2022-12-18T04:48:56;16.67;;;9.03;;
1206;SDS011;593;53.184;8.216;2022-12-18T04:51:22;14.37;;;9.93;;
1206;SDS011;593;53.184;8.216;2022-12-18T04:53:47;19.13;;;9.53;;
1206;SDS011;593;53.184;8.216;2022-12-18T04:56:13;13.77;;;9.47;;
1206;SDS011;593;53.184;8.216;2022-12-18T04:58:40;15.73;;;11.07;;
1206;SDS011;593;53.184;8.216;2022-12-18T05:01:06;16.88;;;9.50;;
1206;SDS011;593;53.184;8.216;2022-12-18T05:03:32;14.57;;;10.13;;
1206;SDS011;593;53.184;8.216;2022-12-18T05:05:58;19.40;;;9.17;;
1206;SDS011;593;53.184;8.216;2022-12-18T05:08:23;21.63;;;10.10;;
1206;SDS011;593;53.184;8.216;2022-12-18T05:10:49;14.43;;;9.40;;
1206;SDS011;593;53.184;8.216;2022-12-18T05:13:14;15.73;;;8.80;;
1206;SDS011;593;53.184;8.216;2022-12-18T05:15:39;13.90;;;9.27;;
1206;SDS011;593;53.184;8.216;2022-12-18T05:18:07;14.15;;;8.65;;
1206;SDS011;593;53.184;8.216;2022-12-18T05:20:32;13.63;;;9.85;;
1206;SDS011;593;53.184;8.216;2022-12-18T05:22:58;17.90;;;10.10;;
1206;SDS011;593;53.184;8.216;2022-12-18T05:25:23;11.00;;;8.10;;
1206;SDS011;593;53.184;8.216;2022-12-18T05:27:49;12.80;;;6.87;;
1206;SDS011;593;53.184;8.216;2022-12-18T05:30:15;14.20;;;8.73;;
1206;SDS011;593;53.184;8.216;2022-12-18T05:32:41;11.15;;;7.40;;
1206;SDS011;593;53.184;8.216;2022-12-18T05:35:07;11.53;;;7.90;;
1206;SDS011;593;53.184;8.216;2022-12-18T05:37:33;13.13;;;8.13;;
1206;SDS011;593;53.184;8.216;2022-12-18T05:39:59;11.77;;;8.23;;
1206;SDS011;593;53.184;8.216;2022-12-18T05:42:24;15.40;;;7.80;;
1206;SDS011;593;53.184;8.216;2022-12-18T05:44:50;13.10;;;7.23;;
1206;SDS011;593;53.184;8.216;2022-12-18T05:47:15;14.67;;;8.67;;
1206;SDS011;593;53.184;8.216;2022-12-18T05:49:40;12.57;;;9.07;;
1206;SDS011;593;53.184;8.216;2022-12-18T05:52:06;17.60;;;9.10;;
1206;SDS011;593;53.184;8.216;2022-12-18T05:54:31;14.13;;;9.03;;
1206;SDS011;593;53.184;8.216;2022-12-18T05:56:57;17.43;;;8.30;;
1206;SDS011;593;53.184;8.216;2022-12-18T05:59:22;16.57;;;8.90;;
1206;SDS011;593;53.184;8.216;2022-12-18T06:01:48;12.67;;;7.03;;
1206;SDS011;593;53.184;8.216;2022-12-18T06:04:13;9.77;;;7.27;;
1206;SDS011;593;53.184;8.216;2022-12-18T06:06:39;14.10;;;6.90;;
1206;SDS011;593;53.184;8.216;2022-12-18T06:09:04;15.83;;;8.40;;
1206;SDS011;593;53.184;8.216;2022-12-18T06:11:33;11.57;;;8.57;;
1206;SDS011;593;53.184;8.216;2022-12-18T06:13:59;11.90;;;6.97;;
1206;SDS011;593;53.184;8.216;2022-12-18T06:16:25;13.90;;;8.27;;
1206;SDS011;593;53.184;8.216;2022-12-18T06:18:51;11.10;;;8.85;;
1206;SDS011;593;53.184;8.216;2022-12-18T06:21:16;13.03;;;9.03;;
1206;SDS011;593;53.184;8.216;2022-12-18T06:23:41;14.40;;;6.83;;
1206;SDS011;593;53.184;8.216;2022-12-18T06:26:08;10.27;;;5.80;;
1206;SDS011;593;53.184;8.216;2022-12-18T06:28:35;11.57;;;6.32;;
1206;SDS011;593;53.184;8.216;2022-12-18T06:31:02;10.57;;;6.83;;
1206;SDS011;593;53.184;8.216;2022-12-18T06:33:31;10.50;;;8.65;;
1206;SDS011;593;53.184;8.216;2022-12-18T06:36:04;14.03;;;7.73;;
1206;SDS011;593;53.184;8.216;2022-12-18T06:38:33;12.68;;;7.03;;
1206;SDS011;593;53.184;8.216;2022-12-18T06:40:59;10.40;;;8.13;;
1206;SDS011;593;53.184;8.216;2022-12-18T06:43:25;9.30;;;5.57;;
1206;SDS011;593;53.184;8.216;2022-12-18T06:45:50;8.70;;;5.47;;
1206;SDS011;593;53.184;8.216;2022-12-18T06:48:20;9.05;;;5.43;;
1206;SDS011;593;53.184;8.216;2022-12-18T06:50:46;11.80;;;7.68;;
1206;SDS011;593;53.184;8.216;2022-12-18T06:53:12;18.70;;;8.53;;
1206;SDS011;593;53.184;8.216;2022-12-18T06:55:37;13.33;;;6.70;;
1206;SDS011;593;53.184;8.216;2022-12-18T06:58:02;11.83;;;6.53;;
1206;SDS011;593;53.184;8.216;2022-12-18T07:00:28;11.00;;;7.07;;
1206;SDS011;593;53.184;8.216;2022-12-18T07:02:53;12.70;;;5.70;;
1206;SDS011;593;53.184;8.216;2022-12-18T07:05:18;10.80;;;5.47;;
1206;SDS011;593;53.184;8.216;2022-12-18T07:07:43;11.40;;;6.10;;
1206;SDS011;593;53.184;8.216;2022-12-18T07:10:09;9.33;;;5.97;;
1206;SDS011;593;53.184;8.216;2022-12-18T07:12:34;8.07;;;5.17;;
1206;SDS011;593;53.184;8.216;2022-12-18T07:15:00;11.57;;;7.00;;
1206;SDS011;593;53.184;8.216;2022-12-18T07:17:25;6.83;;;5.30;;
1206;SDS011;593;53.184;8.216;2022-12-18T07:19:50;13.57;;;7.87;;
1206;SDS011;593;53.184;8.216;2022-12-18T07:22:16;7.70;;;5.63;;
1206;SDS011;593;53.184;8.216;2022-12-18T07:24:41;5.53;;;4.93;;
1206;SDS011;593;53.184;8.216;2022-12-18T07:27:06;8.90;;;5.90;;
1206;SDS011;593;53.184;8.216;2022-12-18T07:29:32;6.00;;;5.27;;
1206;SDS011;593;53.184;8.216;2022-12-18T07:31:57;7.33;;;6.17;;
1206;SDS011;593;53.184;8.216;2022-12-18T07:34:22;10.47;;;6.30;;
1206;SDS011;593;53.184;8.216;2022-12-18T07:36:48;8.50;;;5.40;;
1206;SDS011;593;53.184;8.216;2022-12-18T07:39:13;8.20;;;4.70;;
1206;SDS011;593;53.184;8.216;2022-12-18T07:41:38;9.33;;;5.47;;
1206;SDS011;593;53.184;8.216;2022-12-18T07:44:09;11.00;;;8.23;;
1206;SDS011;593;53.184;8.216;2022-12-18T07:46:35;8.40;;;5.35;;
1206;SDS011;593;53.184;8.216;2022-12-18T07:49:00;9.17;;;6.00;;
1206;SDS011;593;53.184;8.216;2022-12-18T07:51:25;8.03;;;5.73;;
1206;SDS011;593;53.184;8.216;2022-12-18T07:53:51;7.00;;;5.60;;
1206;SDS011;593;53.184;8.216;2022-12-18T07:56:16;11.57;;;6.53;;
1206;SDS011;593;53.184;8.216;2022-12-18T07:58:41;7.17;;;5.20;;
1206;SDS011;593;53.184;8.216;2022-12-18T08:01:08;10.17;;;4.80;;
1206;SDS011;593;53.184;8.216;2022-12-18T08:03:35;10.95;;;5.07;;
1206;SDS011;593;53.184;8.216;2022-12-18T08:06:02;5.68;;;5.03;;
1206;SDS011;593;53.184;8.216;2022-12-18T08:08:29;6.22;;;5.63;;
1206;SDS011;593;53.184;8.216;2022-12-18T08:10:55;11.55;;;5.60;;
1206;SDS011;593;53.184;8.216;2022-12-18T08:13:21;10.00;;;6.50;;
1206;SDS011;593;53.184;8.216;2022-12-18T08:15:54;6.80;;;4.33;;
1206;SDS011;593;53.184;8.216;2022-12-18T08:18:32;8.63;;;5.10;;
1206;SDS011;593;53.184;8.216;2022-12-18T08:20:57;8.43;;;5.90;;
1206;SDS011;593;53.184;8.216;2022-12-18T08:23:23;6.73;;;4.67;;
1206;SDS011;593;53.184;8.216;2022-12-18T08:25:48;8.27;;;5.27;;
1206;SDS011;593;53.184;8.216;2022-12-18T08:28:14;12.52;;;4.72;;
1206;SDS011;593;53.184;8.216;2022-12-18T08:30:40;6.67;;;4.20;;
1206;SDS011;593;53.184;8.216;2022-12-18T08:33:05;7.03;;;4.40;;
1206;SDS011;593;53.184;8.216;2022-12-18T08:35:34;5.70;;;4.87;;
1206;SDS011;593;53.184;8.216;2022-12-18T08:38:01;8.82;;;5.93;;
1206;SDS011;593;53.184;8.216;2022-12-18T08:40:26;5.00;;;4.27;;
1206;SDS011;593;53.184;8.216;2022-12-18T08:42:51;8.90;;;4.63;;
1206;SDS011;593;53.184;8.216;2022-12-18T08:45:35;5.85;;;5.28;;
1206;SDS011;593;53.184;8.216;2022-12-18T08:48:00;6.70;;;4.30;;
1206;SDS011;593;53.184;8.216;2022-12-18T08:50:26;7.63;;;4.57;;
1206;SDS011;593;53.184;8.216;2022-12-18T08:52:51;13.27;;;5.90;;
1206;SDS011;593;53.184;8.216;2022-12-18T08:55:16;7.00;;;5.33;;
1206;SDS011;593;53.184;8.216;2022-12-18T08:57:42;8.97;;;5.30;;
1206;SDS011;593;53.184;8.216;2022-12-18T09:00:07;6.90;;;4.23;;
1206;SDS011;593;53.184;8.216;2022-12-18T09:02:33;6.03;;;4.22;;
1206;SDS011;593;53.184;8.216;2022-12-18T09:04:58;5.10;;;4.60;;
1206;SDS011;593;53.184;8.216;2022-12-18T09:07:23;7.50;;;4.93;;
1206;SDS011;593;53.184;8.216;2022-12-18T09:09:49;5.40;;;3.67;;
1206;SDS011;593;53.184;8.216;2022-12-18T09:12:14;5.87;;;4.90;;
1206;SDS011;593;53.184;8.216;2022-12-18T09:14:39;6.80;;;4.40;;
1206;SDS011;593;53.184;8.216;2022-12-18T09:17:05;6.30;;;4.67;;
1206;SDS011;593;53.184;8.216;2022-12-18T09:19:30;11.33;;;5.40;;
1206;SDS011;593;53.184;8.216;2022-12-18T09:21:56;6.80;;;4.63;;
1206;SDS011;593;53.184;8.216;2022-12-18T09:24:21;6.63;;;5.93;;
1206;SDS011;593;53.184;8.216;2022-12-18T09:26:47;5.33;;;4.43;;
1206;SDS011;593;53.184;8.216;2022-12-18T09:29:12;7.43;;;5.30;;
1206;SDS011;593;53.184;8.216;2022-12-18T09:31:38;8.63;;;6.17;;
1206;SDS011;593;53.184;8.216;2022-12-18T09:34:05;7.45;;;5.07;;
1206;SDS011;593;53.184;8.216;2022-12-18T09:36:31;8.40;;;6.67;;
1206;SDS011;593;53.184;8.216;2022-12-18T09:38:56;9.00;;;4.87;;
1206;SDS011;593;53.184;8.216;2022-12-18T09:44:44;9.13;;;5.85;;
1206;SDS011;593;53.184;8.216;2022-12-18T09:47:05;10.77;;;5.55;;
1206;SDS011;593;53.184;8.216;2022-12-18T09:49:45;10.10;;;5.97;;
1206;SDS011;593;53.184;8.216;2022-12-18T09:53:00;9.85;;;4.50;;
1206;SDS011;593;53.184;8.216;2022-12-18T09:58:05;6.80;;;5.22;;
1206;SDS011;593;53.184;8.216;2022-12-18T10:00:38;8.15;;;5.10;;
1206;SDS011;593;53.184;8.216;2022-12-18T10:03:10;7.60;;;5.20;;
1206;SDS011;593;53.184;8.216;2022-12-18T10:05:42;6.95;;;4.15;;
1206;SDS011;593;53.184;8.216;2022-12-18T10:08:27;6.68;;;4.32;;
1206;SDS011;593;53.184;8.216;2022-12-18T10:14:23;9.13;;;5.30;;
1206;SDS011;593;53.184;8.216;2022-12-18T10:19:38;7.30;;;4.18;;
1206;SDS011;593;53.184;8.216;2022-12-18T10:25:23;6.93;;;3.88;;
1206;SDS011;593;53.184;8.216;2022-12-18T10:27:54;7.28;;;5.00;;
1206;SDS011;593;53.184;8.216;2022-12-18T10:30:25;4.50;;;3.83;;
1206;SDS011;593;53.184;8.216;2022-12-18T10:32:51;8.73;;;4.88;;
1206;SDS011;593;53.184;8.216;2022-12-18T10:35:24;7.30;;;5.17;;
1206;SDS011;593;53.184;8.216;2022-12-18T10:41:00;7.50;;;4.43;;
1206;SDS011;593;53.184;8.216;2022-12-18T10:43:28;8.30;;;5.53;;
1206;SDS011;593;53.184;8.216;2022-12-18T10:48:30;7.70;;;4.75;;
1206;SDS011;593;53.184;8.216;2022-12-18T10:50:58;10.27;;;5.90;;
1206;SDS011;593;53.184;8.216;2022-12-18T10:53:25;8.55;;;6.03;;
1206;SDS011;593;53.184;8.216;2022-12-18T10:55:53;8.05;;;5.63;;
1206;SDS011;593;53.184;8.216;2022-12-18T11:03:33;9.32;;;5.75;;
1206;SDS011;593;53.184;8.216;2022-12-18T11:09:19;7.97;;;5.55;;
1206;SDS011;593;53.184;8.216;2022-12-18T11:11:52;6.25;;;5.57;;
1206;SDS011;593;53.184;8.216;2022-12-18T11:14:30;9.65;;;5.90;;
1206;SDS011;593;53.184;8.216;2022-12-18T11:16:59;9.30;;;6.43;;
1206;SDS011;593;53.184;8.216;2022-12-18T11:19:35;11.75;;;6.75;;
1206;SDS011;593;53.184;8.216;2022-12-18T11:22:19;10.57;;;6.05;;
1206;SDS011;593;53.184;8.216;2022-12-18T11:27:50;8.63;;;6.60;;
1206;SDS011;593;53.184;8.216;2022-12-18T11:30:23;8.93;;;6.63;;
1206;SDS011;593;53.184;8.216;2022-12-18T11:33:23;9.00;;;5.80;;
1206;SDS011;593;53.184;8.216;2022-12-18T11:38:18;11.65;;;7.78;;
1206;SDS011;593;53.184;8.216;2022-12-18T11:40:51;8.77;;;5.95;;
1206;SDS011;593;53.184;8.216;2022-12-18T11:43:31;11.98;;;5.82;;
1206;SDS011;593;53.184;8.216;2022-12-18T11:46:13;10.57;;;6.32;;
1206;SDS011;593;53.184;8.216;2022-12-18T11:48:52;10.85;;;5.90;;
1206;SDS011;593;53.184;8.216;2022-12-18T11:51:28;10.13;;;6.55;;
1206;SDS011;593;53.184;8.216;2022-12-18T11:53:58;8.98;;;6.25;;
1206;SDS011;593;53.184;8.216;2022-12-18T11:56:39;14.10;;;6.22;;
1206;SDS011;593;53.184;8.216;2022-12-18T12:10:02;6.13;;;5.05;;
1206;SDS011;593;53.184;8.216;2022-12-18T12:20:50;11.35;;;7.07;;
1206;SDS011;593;53.184;8.216;2022-12-18T12:23:27;7.85;;;5.80;;
1206;SDS011;593;53.184;8.216;2022-12-18T12:26:18;9.70;;;5.43;;
1206;SDS011;593;53.184;8.216;2022-12-18T12:34:26;12.38;;;6.00;;
1206;SDS011;593;53.184;8.216;2022-12-18T12:39:42;9.93;;;6.40;;
1206;SDS011;593;53.184;8.216;2022-12-18T12:45:23;6.93;;;5.18;;
1206;SDS011;593;53.184;8.216;2022-12-18T12:47:54;6.35;;;5.78;;
1206;SDS011;593;53.184;8.216;2022-12-18T12:50:20;10.73;;;6.78;;
1206;SDS011;593;53.184;8.216;2022-12-18T12:52:49;10.52;;;5.65;;
1206;SDS011;593;53.184;8.216;2022-12-18T12:55:19;9.60;;;5.38;;
1206;SDS011;593;53.184;8.216;2022-12-18T13:00:24;8.55;;;5.60;;
1206;SDS011;593;53.184;8.216;2022-12-18T13:03:21;6.45;;;5.85;;
1206;SDS011;593;53.184;8.216;2022-12-18T13:05:50;5.13;;;4.63;;
1206;SDS011;593;53.184;8.216;2022-12-18T13:10:54;12.32;;;5.53;;
1206;SDS011;593;53.184;8.216;2022-12-18T13:13:49;10.13;;;5.72;;
1206;SDS011;593;53.184;8.216;2022-12-18T13:16:16;8.07;;;5.88;;
1206;SDS011;593;53.184;8.216;2022-12-18T13:18:48;12.02;;;6.78;;
1206;SDS011;593;53.184;8.216;2022-12-18T13:21:23;10.93;;;5.88;;
1206;SDS011;593;53.184;8.216;2022-12-18T13:23:52;7.72;;;5.00;;
1206;SDS011;593;53.184;8.216;2022-12-18T13:31:12;7.20;;;6.47;;
1206;SDS011;593;53.184;8.216;2022-12-18T13:33:40;7.85;;;5.78;;
1206;SDS011;593;53.184;8.216;2022-12-18T13:36:17;6.03;;;5.05;;
1206;SDS011;593;53.184;8.216;2022-12-18T13:41:38;6.82;;;4.72;;
1206;SDS011;593;53.184;8.216;2022-12-18T13:46:48;7.65;;;4.88;;
1206;SDS011;593;53.184;8.216;2022-12-18T13:49:20;8.55;;;6.05;;
1206;SDS011;593;53.184;8.216;2022-12-18T13:52:13;6.90;;;5.15;;
1206;SDS011;593;53.184;8.216;2022-12-18T13:54:45;7.05;;;5.05;;
1206;SDS011;593;53.184;8.216;2022-12-18T13:59:58;7.55;;;4.95;;
1206;SDS011;593;53.184;8.216;2022-12-18T14:02:44;8.30;;;4.50;;
1206;SDS011;593;53.184;8.216;2022-12-18T14:08:11;4.93;;;4.45;;
1206;SDS011;593;53.184;8.216;2022-12-18T14:10:42;7.60;;;4.90;;
1206;SDS011;593;53.184;8.216;2022-12-18T14:13:21;5.72;;;5.13;;
1206;SDS011;593;53.184;8.216;2022-12-18T14:15:51;6.05;;;4.55;;
1206;SDS011;593;53.184;8.216;2022-12-18T14:18:19;8.53;;;4.87;;
1206;SDS011;593;53.184;8.216;2022-12-18T14:20:49;7.15;;;5.05;;
1206;SDS011;593;53.184;8.216;2022-12-18T14:26:03;7.88;;;5.00;;
1206;SDS011;593;53.184;8.216;2022-12-18T14:28:44;8.60;;;6.07;;
1206;SDS011;593;53.184;8.216;2022-12-18T14:31:16;7.40;;;4.80;;
1206;SDS011;593;53.184;8.216;2022-12-18T14:33:43;4.82;;;3.83;;
1206;SDS011;593;53.184;8.216;2022-12-18T14:36:13;10.07;;;5.40;;
1206;SDS011;593;53.184;8.216;2022-12-18T14:38:41;7.38;;;4.57;;
1206;SDS011;593;53.184;8.216;2022-12-18T14:41:10;7.80;;;5.57;;
1206;SDS011;593;53.184;8.216;2022-12-18T14:43:39;7.05;;;5.60;;
1206;SDS011;593;53.184;8.216;2022-12-18T14:46:06;6.32;;;5.50;;
1206;SDS011;593;53.184;8.216;2022-12-18T14:48:53;6.93;;;5.13;;
1206;SDS011;593;53.184;8.216;2022-12-18T14:51:19;7.70;;;5.40;;
1206;SDS011;593;53.184;8.216;2022-12-18T14:53:48;7.05;;;5.20;;
1206;SDS011;593;53.184;8.216;2022-12-18T14:56:23;8.60;;;5.47;;
1206;SDS011;593;53.184;8.216;2022-12-18T14:58:54;7.10;;;5.13;;
1206;SDS011;593;53.184;8.216;2022-12-18T15:04:00;8.00;;;4.85;;
1206;SDS011;593;53.184;8.216;2022-12-18T15:06:34;6.72;;;4.78;;
1206;SDS011;593;53.184;8.216;2022-12-18T15:09:02;7.72;;;6.32;;
1206;SDS011;593;53.184;8.216;2022-12-18T15:14:20;5.70;;;5.10;;
1206;SDS011;593;53.184;8.216;2022-12-18T15:16:52;5.28;;;4.10;;
1206;SDS011;593;53.184;8.216;2022-12-18T15:19:20;8.35;;;5.03;;
1206;SDS011;593;53.184;8.216;2022-12-18T15:21:47;5.50;;;4.20;;
1206;SDS011;593;53.184;8.216;2022-12-18T15:24:22;6.07;;;5.13;;
1206;SDS011;593;53.184;8.216;2022-12-18T15:26:52;5.20;;;4.40;;
1206;SDS011;593;53.184;8.216;2022-12-18T15:29:18;6.80;;;5.40;;
1206;SDS011;593;53.184;8.216;2022-12-18T15:31:57;6.20;;;4.68;;
1206;SDS011;593;53.184;8.216;2022-12-18T15:34:24;5.60;;;5.05;;
1206;SDS011;593;53.184;8.216;2022-12-18T15:36:50;7.65;;;5.03;;
1206;SDS011;593;53.184;8.216;2022-12-18T15:39:16;5.87;;;4.57;;
1206;SDS011;593;53.184;8.216;2022-12-18T15:41:41;5.77;;;4.87;;
1206;SDS011;593;53.184;8.216;2022-12-18T15:44:26;6.18;;;5.57;;
1206;SDS011;593;53.184;8.216;2022-12-18T15:46:52;5.10;;;4.30;;
1206;SDS011;593;53.184;8.216;2022-12-18T15:49:17;6.27;;;4.33;;
1206;SDS011;593;53.184;8.216;2022-12-18T15:51:42;7.47;;;5.60;;
1206;SDS011;593;53.184;8.216;2022-12-18T15:54:12;5.90;;;4.70;;
1206;SDS011;593;53.184;8.216;2022-12-18T15:56:40;6.13;;;4.57;;
1206;SDS011;593;53.184;8.216;2022-12-18T15:59:25;7.60;;;4.20;;
1206;SDS011;593;53.184;8.216;2022-12-18T16:01:51;6.40;;;4.77;;
1206;SDS011;593;53.184;8.216;2022-12-18T16:04:18;4.20;;;3.42;;
1206;SDS011;593;53.184;8.216;2022-12-18T16:06:45;9.27;;;4.65;;
1206;SDS011;593;53.184;8.216;2022-12-18T16:09:12;5.43;;;4.32;;
1206;SDS011;593;53.184;8.216;2022-12-18T16:11:37;4.57;;;4.23;;
1206;SDS011;593;53.184;8.216;2022-12-18T16:14:17;7.75;;;4.78;;
1206;SDS011;593;53.184;8.216;2022-12-18T16:16:43;5.53;;;3.67;;
1206;SDS011;593;53.184;8.216;2022-12-18T16:19:09;4.40;;;3.42;;
1206;SDS011;593;53.184;8.216;2022-12-18T16:21:35;4.03;;;2.83;;
1206;SDS011;593;53.184;8.216;2022-12-18T16:24:00;4.20;;;3.60;;
1206;SDS011;593;53.184;8.216;2022-12-18T16:26:25;4.63;;;3.10;;
1206;SDS011;593;53.184;8.216;2022-12-18T16:28:51;15.23;;;4.90;;
1206;SDS011;593;53.184;8.216;2022-12-18T16:31:16;3.53;;;3.03;;
1206;SDS011;593;53.184;8.216;2022-12-18T16:33:41;5.13;;;4.17;;
1206;SDS011;593;53.184;8.216;2022-12-18T16:36:06;3.73;;;3.07;;
1206;SDS011;593;53.184;8.216;2022-12-18T16:38:32;4.70;;;3.53;;
1206;SDS011;593;53.184;8.216;2022-12-18T16:40:58;4.90;;;4.20;;
1206;SDS011;593;53.184;8.216;2022-12-18T16:43:42;7.78;;;4.97;;
1206;SDS011;593;53.184;8.216;2022-12-18T16:46:07;6.23;;;3.87;;
1206;SDS011;593;53.184;8.216;2022-12-18T16:48:34;5.80;;;3.67;;
1206;SDS011;593;53.184;8.216;2022-12-18T16:51:01;7.03;;;4.10;;
1206;SDS011;593;53.184;8.216;2022-12-18T16:53:28;7.13;;;5.25;;
1206;SDS011;593;53.184;8.216;2022-12-18T16:55:54;6.53;;;4.50;;
1206;SDS011;593;53.184;8.216;2022-12-18T16:58:20;8.27;;;5.07;;
1206;SDS011;593;53.184;8.216;2022-12-18T17:00:48;6.55;;;5.13;;
1206;SDS011;593;53.184;8.216;2022-12-18T17:03:17;7.28;;;4.15;;
1206;SDS011;593;53.184;8.216;2022-12-18T17:05:45;8.43;;;4.93;;
1206;SDS011;593;53.184;8.216;2022-12-18T17:08:12;4.60;;;4.10;;
1206;SDS011;593;53.184;8.216;2022-12-18T17:10:39;3.77;;;3.30;;
1206;SDS011;593;53.184;8.216;2022-12-18T17:13:13;5.13;;;3.97;;
1206;SDS011;593;53.184;8.216;2022-12-18T17:15:42;4.05;;;3.35;;
1206;SDS011;593;53.184;8.216;2022-12-18T17:18:15;9.00;;;4.40;;
1206;SDS011;593;53.184;8.216;2022-12-18T17:20:43;4.63;;;4.13;;
1206;SDS011;593;53.184;8.216;2022-12-18T17:23:08;5.28;;;4.10;;
1206;SDS011;593;53.184;8.216;2022-12-18T17:25:36;4.97;;;4.23;;
1206;SDS011;593;53.184;8.216;2022-12-18T17:28:04;6.97;;;4.22;;
1206;SDS011;593;53.184;8.216;2022-12-18T17:30:29;4.53;;;4.10;;
1206;SDS011;593;53.184;8.216;2022-12-18T17:32:55;5.50;;;3.93;;